Weather at Lloyd Stearman Field

Public forecast

Using degrees Fahrenheit for public forecast. Weather courtesy of forecast.io.

Closest aviation weather report (METAR) to Lloyd Stearman Field

Closest report is Colonel James Jabara Airport, 5.4 nm (10.0 km) WSW. Retrieved 2020/12/03 18:17 UTC (16 minutes ago):

KAAO 031817Z AUTO 34010KT 10SM SCT011 OVC049 M01/M03 A3025 RMK AO2 T10061033

Closest aviation forecast (TAF) to Lloyd Stearman Field

Closest forecast is Mc Connell Air Force Base, 11.9 nm (22.0 km) SW. Retrieved 2020/12/03 18:08 UTC (25 minutes ago):

TAF KIAB 031800Z 0318/0424 36010G15KT 9999 FEW010 OVC045 620452 QNH3022INS BECMG 0320/0321 36009KT 9999 FEW030 SCT050 QNH3019INS BECMG 0323/0324 VRB06KT 9999 FEW075 QNH3017INS BECMG 0402/0403 VRB06KT 9999 SKC QNH3010INS BECMG 0416/0417 28009KT 9999 SKC QNH3008INS TX02/0321Z TNM05/0412Z